Time;durP1;ratioP1;P1;durP2;ratioP2;P2;SDS_P1;SDS_P2;PMS_P1;PMS_P2;Temp;Humidity;BMP_temperature;BMP_pressure;BME280_temperature;BME280_humidity;BME280_pressure;Samples;Min_cycle;Max_cycle;Signal;HPM_P1;HPM_P2
2022/07/10 00:04:18;;;;;;;4.05;1.80;;;;;;;19.37;59.39;100903.56;10350607;28;20065;-73
2022/07/10 00:09:20;;;;;;;2.50;1.25;;;;;;;19.39;59.05;100904.25;10389945;28;20433;-72
2022/07/10 00:14:22;;;;;;;4.13;1.50;;;;;;;19.41;59.49;100904.94;10361363;28;20053;-71
2022/07/10 00:19:23;;;;;;;2.90;1.10;;;;;;;19.36;59.58;100903.75;10350247;28;20504;-69
2022/07/10 00:24:24;;;;;;;4.55;1.60;;;;;;;19.32;59.37;100899.69;10343277;28;20472;-72
2022/07/10 00:29:26;;;;;;;2.42;1.00;;;;;;;19.24;59.01;100914.00;10351642;28;20616;-70
2022/07/10 00:34:27;;;;;;;3.05;1.33;;;;;;;19.19;59.28;100903.69;10346564;28;20100;-71
2022/07/10 00:39:29;;;;;;;2.55;1.17;;;;;;;19.02;59.35;100904.63;10352883;28;20768;-71
2022/07/10 00:44:30;;;;;;;3.08;1.70;;;;;;;19.02;58.39;100919.00;10357055;28;20050;-72
2022/07/10 00:49:34;;;;;;;3.53;0.85;;;;;;;18.81;58.93;100918.50;10350510;28;20148;-72
2022/07/10 00:54:36;;;;;;;3.15;1.67;;;;;;;18.87;58.45;100917.91;10353436;28;20148;-71
2022/07/10 00:59:38;;;;;;;1.98;0.95;;;;;;;18.89;57.79;100932.09;10353098;28;20060;-71
2022/07/10 01:04:39;;;;;;;3.17;1.30;;;;;;;18.92;56.82;100922.84;10356109;28;20139;-72
2022/07/10 01:09:41;;;;;;;4.38;1.10;;;;;;;18.92;56.28;100918.28;10353016;28;20052;-73
2022/07/10 01:14:43;;;;;;;1.52;0.75;;;;;;;19.00;55.71;100920.16;10358058;28;20577;-71
2022/07/10 01:19:44;;;;;;;2.17;0.63;;;;;;;18.94;55.55;100913.56;10353037;28;20146;-70
2022/07/10 01:24:46;;;;;;;1.73;1.10;;;;;;;18.90;55.23;100912.22;10352247;28;20754;-69
2022/07/10 01:29:48;;;;;;;3.53;0.70;;;;;;;18.89;55.01;100913.22;10351520;28;20522;-71
2022/07/10 01:34:50;;;;;;;2.33;0.80;;;;;;;18.85;55.23;100927.97;10355602;28;20045;-70
2022/07/10 01:39:51;;;;;;;4.47;1.45;;;;;;;18.81;54.74;100926.59;10353153;28;20061;-69
2022/07/10 01:44:53;;;;;;;1.90;0.50;;;;;;;18.84;54.86;100923.59;10348226;28;20085;-71
2022/07/10 01:49:55;;;;;;;2.70;0.70;;;;;;;18.84;55.05;100921.75;10350023;28;20046;-68
2022/07/10 01:54:56;;;;;;;2.13;0.93;;;;;;;18.87;55.23;100939.47;10351167;28;20071;-72
2022/07/10 01:59:58;;;;;;;3.63;0.80;;;;;;;18.86;54.83;100937.81;10348298;28;20092;-70
2022/07/10 02:04:59;;;;;;;5.80;0.70;;;;;;;18.73;55.55;100928.28;10362599;28;20583;-71
2022/07/10 02:10:00;;;;;;;1.00;0.50;;;;;;;18.71;55.05;100924.88;10353055;28;20632;-70
2022/07/10 02:15:02;;;;;;;2.65;0.80;;;;;;;18.71;55.23;100916.78;10346223;28;20999;-72
2022/07/10 02:20:04;;;;;;;2.03;0.75;;;;;;;18.62;55.36;100912.38;10337702;28;20135;-70
2022/07/10 02:25:06;;;;;;;2.92;0.93;;;;;;;18.58;56.54;100907.44;10340706;28;20148;-70
2022/07/10 02:30:07;;;;;;;2.30;0.85;;;;;;;18.42;56.33;100908.19;10339129;28;20132;-68
2022/07/10 02:35:09;;;;;;;4.47;0.80;;;;;;;18.50;55.72;100909.09;10339961;28;20060;-69
2022/07/10 02:40:11;;;;;;;3.75;1.15;;;;;;;18.47;56.10;100919.34;10349151;28;20136;-70
2022/07/10 02:45:13;;;;;;;2.65;1.08;;;;;;;18.47;56.00;100924.75;10351183;28;20145;-70
2022/07/10 02:50:14;;;;;;;4.30;1.00;;;;;;;18.28;55.94;100920.41;10347022;28;20081;-70
2022/07/10 02:55:15;;;;;;;4.22;1.40;;;;;;;18.36;55.24;100928.56;10341558;28;20128;-69
2022/07/10 03:00:17;;;;;;;3.25;0.93;;;;;;;18.38;54.56;100931.94;10351000;28;20496;-71
2022/07/10 03:05:18;;;;;;;1.60;0.52;;;;;;;17.94;55.54;100923.84;10348323;28;20073;-70
2022/07/10 03:10:20;;;;;;;2.67;0.70;;;;;;;17.98;54.64;100915.28;10339381;28;20160;-71
2022/07/10 03:15:21;;;;;;;1.83;0.60;;;;;;;18.16;54.71;100926.03;10344988;28;20132;-69
2022/07/10 03:20:23;;;;;;;2.05;0.88;;;;;;;18.08;55.21;100919.75;10338707;28;20038;-70
2022/07/10 03:25:25;;;;;;;2.00;1.02;;;;;;;18.14;55.32;100929.91;10332400;28;20133;-73
2022/07/10 03:30:26;;;;;;;1.85;0.80;;;;;;;17.89;55.75;100921.59;10339040;28;20125;-71
2022/07/10 03:35:27;;;;;;;2.15;0.77;;;;;;;17.84;55.99;100931.97;10358340;28;20136;-71
2022/07/10 03:40:29;;;;;;;2.75;0.80;;;;;;;17.76;56.07;100934.59;10348866;28;20132;-71
2022/07/10 03:45:30;;;;;;;2.55;0.77;;;;;;;17.82;55.84;100936.69;10354843;28;20099;-70
2022/07/10 03:50:32;;;;;;;1.40;0.80;;;;;;;17.75;56.21;100935.59;10350432;28;20132;-72
2022/07/10 03:55:34;;;;;;;3.17;0.60;;;;;;;17.70;56.38;100937.88;10337028;28;20112;-71
2022/07/10 04:00:37;;;;;;;3.50;1.17;;;;;;;17.77;56.49;100933.59;10352608;28;20061;-71
2022/07/10 04:05:40;;;;;;;1.77;0.70;;;;;;;17.76;56.11;100945.34;10342034;28;20089;-70
2022/07/10 04:10:41;;;;;;;1.10;0.70;;;;;;;17.74;55.52;100944.66;10356766;28;20689;-71
2022/07/10 04:15:43;;;;;;;4.28;0.77;;;;;;;17.75;55.22;100951.75;10344150;28;20153;-72
2022/07/10 04:20:44;;;;;;;3.97;0.80;;;;;;;17.80;54.67;100955.66;10353113;28;20053;-72
2022/07/10 04:25:45;;;;;;;3.15;0.75;;;;;;;17.67;54.75;100955.22;10350085;28;20140;-70
2022/07/10 04:30:47;;;;;;;2.42;0.52;;;;;;;17.60;53.94;100949.59;10356907;28;20057;-70
2022/07/10 04:35:48;;;;;;;5.25;0.80;;;;;;;17.26;54.76;100963.69;10350209;28;20136;-70
2022/07/10 04:40:50;;;;;;;1.85;0.60;;;;;;;17.24;54.47;100962.97;10352695;28;20053;-71
2022/07/10 04:45:51;;;;;;;3.58;0.95;;;;;;;16.92;55.80;100974.19;10355293;28;20125;-71
2022/07/10 04:50:53;;;;;;;2.75;0.50;;;;;;;17.26;54.75;100981.66;10353637;28;20103;-70
2022/07/10 04:55:54;;;;;;;3.35;1.02;;;;;;;17.22;54.65;100980.25;10352414;28;21096;-71
2022/07/10 05:00:55;;;;;;;2.42;0.57;;;;;;;17.09;54.60;100984.16;10354501;28;20049;-70
2022/07/10 05:05:57;;;;;;;2.25;0.70;;;;;;;17.29;54.11;100979.53;10354205;28;20060;-71
2022/07/10 05:10:58;;;;;;;1.35;0.50;;;;;;;17.22;54.21;100973.06;10352072;28;20128;-72
2022/07/10 05:16:00;;;;;;;2.38;0.60;;;;;;;17.34;53.59;100986.28;10353939;28;20164;-70
2022/07/10 05:21:01;;;;;;;1.15;0.32;;;;;;;16.96;54.05;100989.88;10358411;28;20045;-70
2022/07/10 05:26:03;;;;;;;1.25;0.47;;;;;;;17.28;51.74;100971.63;10350732;28;20082;-71
2022/07/10 05:31:04;;;;;;;2.17;0.30;;;;;;;17.28;50.48;100972.44;10353702;28;20619;-72
2022/07/10 05:36:09;;;;;;;2.97;0.52;;;;;;;17.34;50.93;100980.91;10348385;28;20053;-70
2022/07/10 05:41:10;;;;;;;3.40;0.40;;;;;;;17.47;49.92;100987.66;10351318;28;20824;-70
2022/07/10 05:46:12;;;;;;;3.03;1.10;;;;;;;17.45;50.27;100999.56;10348810;28;20137;-71
2022/07/10 05:51:13;;;;;;;1.52;0.25;;;;;;;17.21;51.22;101003.63;10346058;28;20045;-73
2022/07/10 05:56:34;;;;;;;1.65;0.40;;;;;;;17.50;50.71;101002.63;10348134;28;20054;-70
2022/07/10 06:01:36;;;;;;;1.52;0.43;;;;;;;17.50;50.65;101002.63;10348295;28;20092;-70
2022/07/10 06:06:37;;;;;;;2.72;0.30;;;;;;;17.58;49.54;101000.03;10323530;28;20057;-72
2022/07/10 06:11:41;;;;;;;0.90;0.20;;;;;;;17.62;50.29;101016.72;10353980;28;20074;-69
2022/07/10 06:16:42;;;;;;;;;;;;;;;17.60;48.77;101008.81;10360160;28;20059;-70
2022/07/10 06:21:44;;;;;;;2.92;0.50;;;;;;;17.69;49.12;101017.81;10344698;28;19974;-69
2022/07/10 06:26:45;;;;;;;3.95;0.55;;;;;;;17.67;49.20;101015.28;10357617;28;20456;-69
2022/07/10 06:31:47;;;;;;;2.08;0.40;;;;;;;17.59;49.85;101007.09;10346051;28;20064;-70
2022/07/10 06:36:48;;;;;;;2.30;0.43;;;;;;;17.17;48.12;101010.28;10361952;28;20053;-68
2022/07/10 06:41:50;;;;;;;2.22;0.40;;;;;;;17.07;48.73;101013.03;10360566;28;20128;-69
2022/07/10 06:52:13;;;;;;;2.00;0.38;;;;;;;17.66;47.75;101012.75;10328711;28;20133;-71
2022/07/10 06:57:15;;;;;;;4.50;0.93;;;;;;;17.98;47.39;101011.41;10321931;28;20203;-71
2022/07/10 07:02:16;;;;;;;1.95;0.20;;;;;;;18.15;46.63;101001.63;10332668;28;20057;-72
2022/07/10 07:07:18;;;;;;;1.70;0.13;;;;;;;18.38;44.23;101002.84;10323710;28;20272;-72
2022/07/10 07:12:25;;;;;;;3.30;0.55;;;;;;;18.63;43.67;101005.75;10331943;28;20054;-73
2022/07/10 07:17:33;;;;;;;2.75;0.30;;;;;;;18.81;42.61;101000.28;10351031;28;20060;-72
2022/07/10 07:27:55;;;;;;;2.50;0.35;;;;;;;18.71;42.84;100996.84;10345235;28;20123;-72
2022/07/10 07:32:57;;;;;;;0.52;0.20;;;;;;;18.85;45.36;101014.28;10356445;28;20128;-71
2022/07/10 07:37:58;;;;;;;2.95;0.30;;;;;;;19.23;42.09;101012.16;10350555;28;20054;-74
2022/07/10 07:43:00;;;;;;;1.27;0.30;;;;;;;19.33;42.74;101002.06;10342480;28;20046;-72
2022/07/10 07:48:02;;;;;;;2.08;0.30;;;;;;;19.35;41.73;101010.88;10346125;28;20156;-72
2022/07/10 07:53:05;;;;;;;1.17;0.20;;;;;;;19.49;41.90;101024.78;10347524;28;20049;-70
2022/07/10 07:58:06;;;;;;;5.32;1.63;;;;;;;19.37;42.16;101016.94;10328284;28;20104;-72
2022/07/10 08:03:08;;;;;;;3.22;0.40;;;;;;;19.72;42.22;101012.31;10349444;28;20152;-69
2022/07/10 08:08:10;;;;;;;1.58;0.30;;;;;;;19.43;41.86;101015.47;10327130;28;20064;-71
2022/07/10 08:13:11;;;;;;;4.70;0.55;;;;;;;19.73;42.10;100997.00;10344394;28;20684;-72
2022/07/10 08:18:13;;;;;;;1.52;0.38;;;;;;;19.73;41.54;101007.78;10355718;28;20452;-72
2022/07/10 08:23:14;;;;;;;4.13;1.00;;;;;;;19.68;41.92;101005.59;10357399;28;26607;-71
2022/07/10 08:28:16;;;;;;;4.78;0.80;;;;;;;19.87;41.90;101000.91;10335165;28;20210;-73
2022/07/10 08:33:24;;;;;;;1.60;0.25;;;;;;;20.00;41.19;100998.56;10330730;28;20144;-72
2022/07/10 08:38:26;;;;;;;1.70;0.40;;;;;;;20.21;41.34;100983.72;10325519;28;20053;-71
2022/07/10 08:43:27;;;;;;;1.63;0.17;;;;;;;19.95;40.93;101000.91;10347408;28;20130;-71
2022/07/10 08:48:32;;;;;;;2.28;0.15;;;;;;;19.68;42.56;100989.38;10333019;28;20133;-72
2022/07/10 08:53:34;;;;;;;3.45;0.40;;;;;;;19.77;41.90;100998.31;10336957;28;20050;-72
2022/07/10 08:58:36;;;;;;;1.83;0.63;;;;;;;19.24;42.04;100992.25;10343529;28;20104;-72
2022/07/10 09:03:38;;;;;;;2.30;0.80;;;;;;;19.59;42.36;100995.75;10350032;28;20053;-71
2022/07/10 09:08:58;;;;;;;1.45;0.50;;;;;;;19.40;41.86;100989.63;10341833;28;20531;-72
2022/07/10 09:14:07;;;;;;;0.85;0.20;;;;;;;19.59;42.75;100993.03;10351601;28;20125;-71
2022/07/10 09:19:22;;;;;;;1.75;0.45;;;;;;;19.98;42.22;101000.59;10345577;28;21896;-71
2022/07/10 09:24:24;;;;;;;2.03;0.35;;;;;;;20.27;42.16;100989.28;10343283;28;20440;-74
2022/07/10 09:29:26;;;;;;;4.60;1.00;;;;;;;20.69;40.76;100991.97;10357055;28;20136;-74
2022/07/10 09:34:36;;;;;;;2.40;0.30;;;;;;;20.87;40.66;100976.41;10352884;28;20040;-72
2022/07/10 09:39:59;;;;;;;2.22;0.85;;;;;;;21.12;40.55;100985.28;10349499;28;20062;-70
2022/07/10 09:45:10;;;;;;;2.03;0.90;;;;;;;21.12;40.09;100979.88;10363372;28;20472;-74
2022/07/10 09:50:23;;;;;;;2.08;0.63;;;;;;;20.75;40.48;100992.16;10352489;28;20038;-72
2022/07/10 09:55:27;;;;;;;2.10;0.60;;;;;;;20.20;43.43;100987.44;10348529;28;20124;-72
2022/07/10 10:00:32;;;;;;;2.35;0.50;;;;;;;19.92;43.21;100971.53;10352465;28;20063;-72
2022/07/10 10:05:36;;;;;;;2.38;0.60;;;;;;;19.83;42.71;100975.25;10356213;28;21252;-75
2022/07/10 10:10:44;;;;;;;3.05;0.60;;;;;;;20.50;41.83;100956.16;10315805;28;20674;-73
2022/07/10 10:15:47;;;;;;;2.00;1.08;;;;;;;21.18;39.84;100949.38;10316287;28;21091;-74
2022/07/10 10:20:51;;;;;;;2.45;0.65;;;;;;;21.63;38.72;100946.09;10332230;28;20128;-74
2022/07/10 10:25:56;;;;;;;1.92;0.45;;;;;;;22.03;38.60;100952.25;10334841;28;20551;-72
2022/07/10 10:30:59;;;;;;;3.80;0.90;;;;;;;21.94;38.51;100932.50;10321932;28;20239;-73
2022/07/10 10:36:02;;;;;;;2.17;0.40;;;;;;;21.83;38.48;100925.66;10349692;28;20053;-73
2022/07/10 10:41:22;;;;;;;2.28;0.50;;;;;;;22.17;37.59;100923.50;10336053;28;20056;-73
2022/07/10 10:46:25;;;;;;;2.00;0.38;;;;;;;21.50;37.94;100942.13;10322045;28;20081;-73
2022/07/10 10:51:56;;;;;;;3.40;0.60;;;;;;;20.61;40.50;100936.88;10345636;28;20322;-72
2022/07/10 10:57:18;;;;;;;4.50;0.90;;;;;;;20.47;40.16;100934.88;10350167;28;20283;-73
2022/07/10 11:02:28;;;;;;;4.35;0.73;;;;;;;21.09;39.83;100939.63;10345383;28;20087;-72
2022/07/10 11:07:51;;;;;;;4.65;0.60;;;;;;;21.63;39.01;100933.44;10341011;28;20058;-72
2022/07/10 11:13:12;;;;;;;2.47;0.57;;;;;;;22.17;38.36;100928.91;10351636;28;20183;-73
2022/07/10 11:18:16;;;;;;;1.48;0.47;;;;;;;22.55;38.66;100927.06;10361354;28;20119;-73
2022/07/10 11:23:29;;;;;;;2.97;0.50;;;;;;;22.93;36.63;100921.50;10344786;28;20180;-74
2022/07/10 11:28:37;;;;;;;3.83;0.50;;;;;;;23.00;37.07;100916.19;10345664;28;20186;-72
2022/07/10 11:33:42;;;;;;;3.03;0.50;;;;;;;23.38;36.34;100912.50;10347937;28;20037;-75
2022/07/10 11:38:44;;;;;;;3.70;0.85;;;;;;;22.67;37.14;100905.72;10337888;28;20219;-71
2022/07/10 11:43:57;;;;;;;2.30;0.53;;;;;;;22.47;37.74;100905.44;10344271;28;20467;-72
2022/07/10 11:49:04;;;;;;;1.20;0.50;;;;;;;22.38;37.44;100906.53;10342189;28;20049;-71
2022/07/10 11:54:11;;;;;;;1.95;0.50;;;;;;;22.56;36.85;100890.78;10361702;28;20329;-73
2022/07/10 11:59:14;;;;;;;2.05;0.40;;;;;;;22.98;35.22;100885.66;10363255;28;20212;-72
2022/07/10 12:04:17;;;;;;;2.28;0.38;;;;;;;22.88;36.53;100890.53;10359528;28;20512;-74
2022/07/10 12:09:22;;;;;;;;;;;;;;;22.52;36.53;100892.16;10353473;28;20070;-74
2022/07/10 12:14:25;;;;;;;3.85;1.52;;;;;;;21.76;37.68;100892.16;10323932;28;19925;-73
2022/07/10 12:19:33;;;;;;;2.53;0.60;;;;;;;21.88;38.16;100896.13;10317617;28;20073;-72
2022/07/10 12:24:35;;;;;;;3.30;0.70;;;;;;;22.16;37.48;100898.25;10341835;28;20133;-73
2022/07/10 12:29:36;;;;;;;1.23;0.40;;;;;;;22.35;37.70;100896.06;10356549;28;20041;-74
2022/07/10 12:34:43;;;;;;;3.08;0.40;;;;;;;22.40;37.00;100897.22;10358169;28;20262;-72
2022/07/10 12:39:52;;;;;;;1.50;0.50;;;;;;;22.24;37.13;100900.88;10330189;28;20411;-73
2022/07/10 12:44:54;;;;;;;2.55;0.32;;;;;;;21.97;38.41;100882.53;10342993;28;20054;-73
2022/07/10 12:50:01;;;;;;;3.75;0.43;;;;;;;22.14;37.93;100894.88;10336319;28;20140;-75
2022/07/10 12:55:18;;;;;;;3.13;0.30;;;;;;;22.38;37.58;100892.97;10344438;28;20199;-73
2022/07/10 13:00:34;;;;;;;2.45;0.35;;;;;;;22.82;37.19;100897.59;10323717;28;20046;-73
2022/07/10 13:05:39;;;;;;;4.10;1.13;;;;;;;23.04;36.47;100893.03;10324721;28;20159;-73
2022/07/10 13:10:42;;;;;;;2.28;0.55;;;;;;;22.94;36.66;100878.94;10336311;28;20259;-74
2022/07/10 13:15:54;;;;;;;1.63;0.32;;;;;;;23.04;36.57;100884.06;10320106;28;20144;-72
2022/07/10 13:20:58;;;;;;;1.67;0.30;;;;;;;23.35;35.78;100885.72;10342381;28;20053;-74
2022/07/10 13:26:04;;;;;;;2.13;0.30;;;;;;;23.36;35.59;100884.66;10351919;28;20126;-73
2022/07/10 13:31:07;;;;;;;1.55;0.22;;;;;;;23.44;35.50;100885.38;10377817;28;20042;-70
2022/07/10 13:36:09;;;;;;;3.50;0.50;;;;;;;23.07;36.29;100878.25;10351380;28;20422;-71
2022/07/10 13:41:10;;;;;;;2.08;0.45;;;;;;;22.94;36.98;100897.94;10339094;28;20212;-71
2022/07/10 13:46:12;;;;;;;1.50;0.40;;;;;;;22.81;37.38;100901.31;10338845;28;20075;-71
2022/07/10 13:51:13;;;;;;;3.80;1.10;;;;;;;22.13;37.68;100895.94;10347743;28;20050;-71
2022/07/10 13:56:15;;;;;;;2.72;0.73;;;;;;;22.05;38.60;100901.41;10324794;28;20054;-70
2022/07/10 14:01:17;;;;;;;3.67;1.17;;;;;;;22.32;38.56;100907.28;10339420;28;20168;-71
2022/07/10 14:06:20;;;;;;;2.25;0.50;;;;;;;22.18;39.13;100893.50;10343492;28;20212;-71
2022/07/10 14:11:21;;;;;;;1.33;0.33;;;;;;;22.64;38.20;100884.41;10355508;28;20223;-70
2022/07/10 14:16:23;;;;;;;1.27;0.45;;;;;;;23.13;37.16;100880.22;10344440;28;20156;-71
2022/07/10 14:21:27;;;;;;;0.52;0.10;;;;;;;23.10;37.77;100883.31;10348970;28;20147;-71
2022/07/10 14:26:28;;;;;;;1.58;0.20;;;;;;;23.68;36.93;100883.31;10344482;28;20842;-71
2022/07/10 14:31:31;;;;;;;1.27;0.22;;;;;;;23.62;36.18;100879.50;10344637;28;20044;-73
2022/07/10 14:36:33;;;;;;;1.23;0.20;;;;;;;23.50;36.70;100875.63;10345105;28;20041;-71
2022/07/10 14:41:34;;;;;;;0.90;0.40;;;;;;;23.37;37.69;100884.47;10343681;28;20063;-74
2022/07/10 14:46:36;;;;;;;0.88;0.30;;;;;;;23.33;37.76;100879.63;10351262;28;20064;-73
2022/07/10 14:51:38;;;;;;;2.28;0.28;;;;;;;22.57;39.19;100873.44;10349956;28;20084;-70
2022/07/10 14:56:40;;;;;;;2.10;0.20;;;;;;;22.21;40.20;100879.56;10349080;28;20061;-71
2022/07/10 15:01:42;;;;;;;0.70;0.10;;;;;;;22.22;40.89;100885.84;10346656;28;20484;-72
2022/07/10 15:06:44;;;;;;;0.90;0.28;;;;;;;22.34;40.56;100878.09;10334669;28;20057;-72
2022/07/10 15:11:45;;;;;;;2.42;0.15;;;;;;;22.60;40.08;100877.66;10334984;28;20057;-71
2022/07/10 15:16:47;;;;;;;4.07;0.50;;;;;;;22.83;39.94;100885.69;10349090;28;20145;-71
2022/07/10 15:21:48;;;;;;;0.90;0.10;;;;;;;22.74;40.15;100881.38;10337705;28;20269;-71
2022/07/10 15:26:50;;;;;;;0.77;0.10;;;;;;;22.69;40.44;100875.69;10344309;28;20122;-71
2022/07/10 15:31:52;;;;;;;0.40;0.10;;;;;;;22.57;40.80;100873.44;10343530;28;20046;-71
2022/07/10 15:36:59;;;;;;;1.70;0.80;;;;;;;22.32;41.28;100869.31;10330268;28;20793;-72
2022/07/10 15:42:01;;;;;;;0.60;0.13;;;;;;;22.31;41.46;100878.44;10355146;28;20704;-71
2022/07/10 15:47:03;;;;;;;0.60;0.10;;;;;;;21.97;41.84;100879.81;10345018;28;20191;-70
2022/07/10 15:52:05;;;;;;;0.40;0.10;;;;;;;21.67;43.30;100861.59;10347602;28;20509;-71
2022/07/10 15:57:07;;;;;;;0.85;0.32;;;;;;;21.61;43.04;100866.91;10332845;28;20423;-72
2022/07/10 16:02:10;;;;;;;3.75;0.35;;;;;;;21.65;43.67;100851.97;10356781;28;20715;-73
2022/07/10 16:07:13;;;;;;;1.98;0.20;;;;;;;21.73;44.19;100854.59;10355372;28;20530;-72
2022/07/10 16:12:14;;;;;;;0.82;0.10;;;;;;;21.80;43.42;100860.97;10350203;28;20052;-73
2022/07/10 16:17:16;;;;;;;1.55;0.30;;;;;;;21.81;44.08;100859.97;10337878;28;20220;-71
2022/07/10 16:22:18;;;;;;;0.60;0.20;;;;;;;21.99;43.96;100858.78;10348388;28;20056;-73
2022/07/10 16:27:19;;;;;;;0.90;0.20;;;;;;;22.05;44.51;100858.03;10352630;28;20208;-74
2022/07/10 16:32:21;;;;;;;1.05;0.40;;;;;;;22.13;44.25;100855.25;10357927;28;20110;-75
2022/07/10 16:37:22;;;;;;;1.73;0.30;;;;;;;21.89;44.33;100859.88;10366510;28;20601;-74
2022/07/10 16:42:25;;;;;;;1.15;0.22;;;;;;;21.59;44.99;100848.13;10370657;28;20080;-73
2022/07/10 16:47:27;;;;;;;1.40;0.28;;;;;;;21.73;45.62;100848.34;10344214;28;20613;-71
2022/07/10 16:52:28;;;;;;;0.57;0.20;;;;;;;21.32;45.51;100846.78;10352175;28;20045;-71
2022/07/10 16:57:30;;;;;;;0.30;0.10;;;;;;;21.32;45.35;100852.19;10340416;28;20819;-72
2022/07/10 17:02:31;;;;;;;1.08;0.28;;;;;;;21.37;46.32;100844.34;10345424;28;20228;-71
2022/07/10 17:07:33;;;;;;;3.80;0.32;;;;;;;21.68;45.65;100838.06;10326624;28;21306;-70
2022/07/10 17:12:35;;;;;;;0.40;0.28;;;;;;;21.63;45.84;100829.63;10348243;28;20076;-71
2022/07/10 17:17:36;;;;;;;0.75;0.40;;;;;;;21.25;46.75;100849.34;10362167;28;20053;-70
2022/07/10 17:22:39;;;;;;;1.50;0.35;;;;;;;21.06;47.45;100842.50;10347785;28;20100;-70
2022/07/10 17:27:40;;;;;;;1.53;1.07;;;;;;;21.18;46.84;100848.38;10348149;28;20470;-70
2022/07/10 17:32:42;;;;;;;2.30;1.27;;;;;;;21.11;47.45;100850.94;10348715;28;20140;-72
2022/07/10 17:37:44;;;;;;;1.13;0.93;;;;;;;20.98;47.95;100846.09;10347763;28;20050;-72
2022/07/10 17:42:46;;;;;;;0.73;0.50;;;;;;;21.17;47.99;100861.06;10347025;28;20053;-71
2022/07/10 17:47:48;;;;;;;0.70;0.70;;;;;;;21.27;48.02;100862.69;10335846;28;20156;-72
2022/07/10 17:52:49;;;;;;;0.82;0.63;;;;;;;21.17;48.10;100855.66;10347716;28;20068;-72
2022/07/10 17:57:51;;;;;;;0.85;0.55;;;;;;;20.73;48.74;100848.13;10345120;28;20585;-72
2022/07/10 18:02:52;;;;;;;0.80;0.70;;;;;;;20.67;48.85;100851.50;10328421;28;20036;-72
2022/07/10 18:07:54;;;;;;;0.77;0.77;;;;;;;20.79;49.23;100855.53;10349460;28;21951;-71
2022/07/10 18:12:55;;;;;;;0.88;0.73;;;;;;;20.48;49.75;100850.03;10330372;28;20226;-71
2022/07/10 18:17:57;;;;;;;0.60;0.60;;;;;;;20.42;49.96;100862.38;10341647;28;20064;-71
2022/07/10 18:22:58;;;;;;;1.30;1.20;;;;;;;20.31;50.57;100860.03;10320546;28;20050;-72
2022/07/10 18:28:00;;;;;;;1.70;0.93;;;;;;;20.42;50.37;100865.09;10336428;28;20211;-72
2022/07/10 18:38:21;;;;;;;0.52;0.50;;;;;;;20.32;51.34;100859.03;10332742;28;20113;-70
2022/07/10 18:43:23;;;;;;;1.45;1.15;;;;;;;20.35;51.31;100868.66;10321725;28;20054;-69
2022/07/10 18:48:25;;;;;;;2.40;1.13;;;;;;;19.89;52.56;100877.31;10352811;28;20145;-70
2022/07/10 18:53:27;;;;;;;0.70;0.63;;;;;;;20.02;52.91;100869.53;10340948;28;20058;-69
2022/07/10 18:58:28;;;;;;;2.17;0.80;;;;;;;20.24;53.48;100873.41;10342906;28;20080;-69
2022/07/10 19:03:30;;;;;;;1.08;0.90;;;;;;;20.26;52.55;100876.75;10341842;28;20133;-70
2022/07/10 19:08:31;;;;;;;1.30;0.80;;;;;;;19.83;53.99;100883.41;10325747;28;20230;-69
2022/07/10 19:13:33;;;;;;;0.73;0.70;;;;;;;19.49;54.25;100876.28;10343300;28;20957;-69
2022/07/10 19:18:35;;;;;;;0.70;0.50;;;;;;;19.67;54.50;100881.53;10319694;28;20126;-70
2022/07/10 19:23:36;;;;;;;2.58;1.10;;;;;;;19.55;55.29;100881.00;10337773;28;20810;-68
2022/07/10 19:28:38;;;;;;;0.80;0.68;;;;;;;19.53;54.95;100883.00;10329047;28;21300;-69
2022/07/10 19:33:40;;;;;;;1.65;1.05;;;;;;;19.35;56.00;100881.31;10327606;28;21178;-69
2022/07/10 19:38:42;;;;;;;1.93;0.80;;;;;;;19.41;55.83;100894.16;10319597;28;20497;-70
2022/07/10 19:43:44;;;;;;;1.00;0.65;;;;;;;19.54;55.56;100879.31;10321325;28;20061;-68
2022/07/10 19:48:48;;;;;;;1.40;1.00;;;;;;;19.19;56.87;100897.47;10337242;28;20050;-69
2022/07/10 19:53:49;;;;;;;1.60;0.70;;;;;;;19.23;56.85;100904.19;10316921;28;20057;-69
2022/07/10 19:58:51;;;;;;;1.15;0.70;;;;;;;19.23;56.46;100898.81;10337696;28;20171;-69
2022/07/10 20:03:52;;;;;;;1.08;0.80;;;;;;;19.11;57.27;100913.63;10343309;28;20072;-70
2022/07/10 20:08:55;;;;;;;0.98;0.82;;;;;;;19.17;57.60;100910.25;10344514;28;20169;-69
2022/07/10 20:13:57;;;;;;;1.00;0.90;;;;;;;19.18;58.57;100907.41;10372077;28;20061;-70
2022/07/10 20:18:58;;;;;;;1.65;1.40;;;;;;;19.42;57.62;100909.31;10356608;28;20068;-69
2022/07/10 20:24:01;;;;;;;1.65;1.30;;;;;;;19.28;58.55;100912.66;10350119;28;20286;-70
2022/07/10 20:29:02;;;;;;;1.50;1.40;;;;;;;19.14;58.94;100905.19;10317598;28;20129;-69
2022/07/10 20:34:04;;;;;;;1.13;1.02;;;;;;;19.26;58.63;100914.69;10345545;28;20184;-69
2022/07/10 20:39:05;;;;;;;3.17;2.17;;;;;;;19.01;60.86;100911.06;10333837;28;20195;-70
2022/07/10 20:44:07;;;;;;;2.08;1.92;;;;;;;19.20;60.05;100904.53;10347752;28;20151;-69
2022/07/10 20:49:09;;;;;;;2.92;2.20;;;;;;;19.14;59.89;100899.78;10341360;28;20464;-69
2022/07/10 20:54:10;;;;;;;2.03;1.92;;;;;;;18.84;61.05;100899.31;10310619;28;20054;-69
2022/07/10 20:59:12;;;;;;;1.70;1.60;;;;;;;18.87;60.85;100910.66;10347298;28;20565;-70
2022/07/10 21:04:13;;;;;;;1.70;1.60;;;;;;;18.93;61.57;100909.19;10336771;28;20127;-70
2022/07/10 21:09:15;;;;;;;1.70;1.60;;;;;;;19.02;60.71;100907.34;10354264;28;20076;-69
2022/07/10 21:14:16;;;;;;;3.45;1.80;;;;;;;19.04;60.54;100903.47;10350494;28;20053;-70
2022/07/10 21:19:18;;;;;;;2.22;1.88;;;;;;;19.18;60.55;100909.25;10349552;28;20050;-70
2022/07/10 21:24:19;;;;;;;1.52;1.35;;;;;;;19.19;60.20;100905.56;10356963;28;20094;-69
2022/07/10 21:29:21;;;;;;;2.65;2.40;;;;;;;19.03;60.60;100900.94;10349651;28;20065;-70
2022/07/10 21:34:22;;;;;;;3.97;3.58;;;;;;;18.89;61.64;100892.47;10354854;28;20136;-69
2022/07/10 21:39:23;;;;;;;3.65;3.30;;;;;;;18.95;62.78;100893.66;10343461;28;20212;-71
2022/07/10 21:44:25;;;;;;;3.45;3.15;;;;;;;19.00;61.40;100891.31;10346678;28;20092;-69
2022/07/10 21:49:26;;;;;;;3.53;3.15;;;;;;;19.09;61.05;100886.78;10349696;28;20136;-70
2022/07/10 21:54:28;;;;;;;3.22;3.03;;;;;;;19.14;61.99;100884.47;10349078;28;20573;-70
2022/07/10 21:59:29;;;;;;;3.10;2.90;;;;;;;19.06;62.06;100887.97;10364982;28;20046;-71
2022/07/10 22:04:31;;;;;;;4.05;3.65;;;;;;;19.16;62.13;100879.75;10396072;28;20060;-71
2022/07/10 22:09:32;;;;;;;4.63;3.85;;;;;;;19.25;61.71;100883.31;10397654;28;20777;-69
2022/07/10 22:14:34;;;;;;;3.30;3.10;;;;;;;19.23;61.92;100872.69;10357483;28;20753;-70
2022/07/10 22:19:36;;;;;;;4.50;4.03;;;;;;;19.23;61.33;100877.22;10345302;28;20544;-69
2022/07/10 22:24:37;;;;;;;3.40;3.17;;;;;;;19.21;61.84;100865.75;10348510;28;20077;-70
2022/07/10 22:29:39;;;;;;;3.70;3.25;;;;;;;19.31;61.22;100874.56;10349527;28;20132;-69
2022/07/10 22:34:40;;;;;;;3.45;3.15;;;;;;;19.33;61.75;100883.31;10344324;28;20084;-70
2022/07/10 22:39:41;;;;;;;4.13;3.42;;;;;;;19.32;61.76;100875.38;10342522;28;20057;-70
2022/07/10 22:44:43;;;;;;;4.65;3.40;;;;;;;19.34;61.47;100870.69;10347931;28;20172;-71
2022/07/10 22:49:44;;;;;;;3.83;3.25;;;;;;;19.35;61.67;100869.66;10348080;28;20145;-68
2022/07/10 22:54:46;;;;;;;4.40;3.50;;;;;;;19.34;61.23;100874.22;10344727;28;20086;-70
2022/07/10 22:59:47;;;;;;;3.90;3.60;;;;;;;19.24;61.09;100873.50;10346361;28;20052;-69
2022/07/10 23:04:49;;;;;;;3.90;3.60;;;;;;;19.15;62.63;100879.91;10344181;28;20048;-68
2022/07/10 23:09:50;;;;;;;3.90;3.40;;;;;;;19.07;61.94;100865.38;10352776;28;20111;-70
2022/07/10 23:14:51;;;;;;;3.15;2.80;;;;;;;19.15;61.98;100855.63;10338799;28;20045;-68
2022/07/10 23:19:53;;;;;;;3.85;3.55;;;;;;;19.21;62.45;100852.25;10345628;28;20049;-68
2022/07/10 23:24:56;;;;;;;3.00;2.80;;;;;;;19.04;62.47;100859.47;10340272;28;20061;-68
2022/07/10 23:29:58;;;;;;;3.92;3.05;;;;;;;19.11;62.93;100851.56;10332163;28;20077;-69